»·PEaware :: N182RB KCRQ-KMYF

N182RB :: KCRQ-KMYF

FLIGHT INFORMATION

Flight Status: Arrived
Operator: Privately registered:
United States
More flights under this callsign
Pilot: Anonymous 29543 (29543)
Aircraft: CESSNA 182 SKYLANE
(C182)
More flights by this aircraft type
Origin: KCRQ McClellan-Palomar
United States
Destination: KMYF Montgomery
United States
More flights between these airports :: More routes between these airports
Route: MZB
File this flight plan on PilotEdge
Remarks: Request ILS 28R approach
Altitude:
(Current/Filed)
4,000ft
Speed:
(Current/Filed)
124kts
Departed: 05-Mar-21 03:22 PM
Arrived: 05-Mar-21 03:54 PM
Distance/Time
Traveled:
20nm/0:32
Distance/Time
To Go:
Arrived

Flight Plot

Page will automatically refresh every two minutes.


Map Options




Map Legend


Flown Route
Filed Route
Departure Airport
Arrival Airport
Navaid (VOR, NDB)
Fix

Horizontal Profiles

Position Reports

Time Latitude Longitude Heading Altitude Ground
Speed
05-Mar-21 15:05 33.125627 -117.286474 352 334ft 0kts
05-Mar-21 15:06 33.125627 -117.286474 352 334ft 0kts
05-Mar-21 15:07 33.125628 -117.286474 352 334ft 0kts
05-Mar-21 15:08 33.125629 -117.286474 352 334ft 0kts
05-Mar-21 15:09 33.125630 -117.286474 352 334ft 0kts
05-Mar-21 15:10 33.125631 -117.286474 352 334ft 0kts
05-Mar-21 15:11 33.125631 -117.286474 352 334ft 0kts
05-Mar-21 15:12 33.125632 -117.286475 352 334ft 0kts
05-Mar-21 15:13 33.125633 -117.286475 352 334ft 0kts
05-Mar-21 15:14 33.125706 -117.286472 8 334ft 2kts
05-Mar-21 15:15 33.126625 -117.283687 77 334ft 9kts
05-Mar-21 15:16 33.127022 -117.281028 76 334ft 7kts
05-Mar-21 15:17 33.127644 -117.277444 81 334ft 8kts
05-Mar-21 15:18 33.128093 -117.274622 79 334ft 12kts
05-Mar-21 15:19 33.128723 -117.272356 7 334ft 0kts
05-Mar-21 15:20 33.128730 -117.272355 6 334ft 1kts
05-Mar-21 15:21 33.128674 -117.277772 259 335ft 65kts
05-Mar-21 15:22 33.124849 -117.303825 257 936ft 91kts
05-Mar-21 15:24 33.120263 -117.335996 261 2439ft 98kts
05-Mar-21 15:25 33.116119 -117.366828 261 3337ft 93kts
05-Mar-21 15:26 33.107560 -117.394571 186 4019ft 103kts
05-Mar-21 15:27 33.087865 -117.365546 121 4004ft 124kts
05-Mar-21 15:28 33.070048 -117.329912 121 4003ft 125kts
05-Mar-21 15:29 33.052119 -117.294046 121 4002ft 125kts
05-Mar-21 15:30 33.034259 -117.258309 121 4002ft 125kts
05-Mar-21 15:31 33.016419 -117.222604 121 4002ft 125kts
05-Mar-21 15:32 32.998500 -117.186735 121 4002ft 125kts
05-Mar-21 15:33 32.980657 -117.151006 121 4002ft 125kts
05-Mar-21 15:34 32.962792 -117.115227 121 4002ft 125kts
05-Mar-21 15:35 32.944922 -117.079483 121 4064ft 132kts
05-Mar-21 15:36 32.926045 -117.042473 121 4002ft 125kts
05-Mar-21 15:37 32.908214 -117.006738 121 4003ft 125kts
05-Mar-21 15:38 32.890370 -116.970966 121 4002ft 125kts
05-Mar-21 15:39 32.872660 -116.935451 121 4002ft 124kts
05-Mar-21 15:40 32.854953 -116.899932 121 4002ft 124kts
05-Mar-21 15:41 32.837164 -116.864562 127 4002ft 124kts
05-Mar-21 15:42 32.804233 -116.854358 171 4003ft 124kts
05-Mar-21 15:43 32.769918 -116.847618 171 4047ft 127kts
05-Mar-21 15:44 32.732670 -116.849502 191 3985ft 119kts
05-Mar-21 15:44 32.720500 -116.870499 281 4008ft 111kts
05-Mar-21 15:45 32.726152 -116.906472 281 4001ft 109kts
05-Mar-21 15:47 32.738821 -116.944150 295 3997ft 103kts
05-Mar-21 15:47 32.749312 -116.970372 296 3820ft 113kts
05-Mar-21 15:48 32.763579 -117.005887 296 3098ft 121kts
05-Mar-21 15:50 32.780376 -117.048695 295 1935ft 117kts
05-Mar-21 15:51 32.792583 -117.079689 295 1491ft 92kts
05-Mar-21 15:51 32.801512 -117.102323 295 1042ft 89kts
05-Mar-21 15:52 32.811897 -117.128769 295 579ft 86kts
05-Mar-21 15:54 32.816031 -117.141272 200 430ft 0kts
05-Mar-21 15:54 32.815919 -117.141373 226 430ft 7kts
05-Mar-21 15:55 32.814671 -117.144079 216 430ft 8kts
05-Mar-21 15:56 32.813530 -117.143730 157 430ft 0kts

Navigation Log

Ident Type
Flight plan parsing failed, navigation log unavailable